< < Back
Terminal Aerodrome Forecast


Current Version              Previous Versions:   1  2  3  4  5  6  7  8  9  

Terminal Aerodrome Forecast

714
FTUS42 KTAE 292327
TAFTLH
TAF
KTLH 292327Z 3000/3024 20004KT P6SM SCT200
     FM300700 00000KT 2SM BR SCT006
     FM301400 14007KT P6SM SCT030
     FM301900 18008KT P6SM SCT050=



Latest METAR

895
SAUS80 KWBC 301800 RRB
MTRTLH
METAR KTLH 301753Z VRB05KT 10SM FEW025 FEW080 OVC250 31/19 A2995 RMK AO2
SLP141 T03060189 10311 20206 58003


USA.gov is the U.S. government's official web portal to all federal, state and local government web resources and services.